Station: Munchen, ICAO: EDDM, Synop: Synop: 10866,
Koordinaten: 4821'00''N 01147'00''E, Hoehe: 453m, Entfernung: 9.74km
2017/12/12 08:20
EDDM 120820Z 28013KT 9999 FEW028 BKN037 03/M02 Q1006 NOSIG


Station: Erding, ICAO: ETSE, Synop: Synop: 10869,
Koordinaten: 4819'00''N 01157'00''E, Hoehe: 462m, Entfernung: 17.80km
2015/01/30 08:20
ETSE 300820Z 27013G23KT 1600 SHSNGS FEW006 BKN023 01/M01 Q0979 REGS YLO


Station: Ingolstadt, ICAO: ETSI, Synop: Synop: 10860,
Koordinaten: 4843'00''N 01132'00''E, Hoehe: 367m, Entfernung: 36.37km
2017/12/12 08:20
ETSI 120820Z 30014KT 9999 BKN030 03/M03 Q1006 BLU BLU+ TEMPO BLU


Station: Fuerstenfeldbruck, ICAO: ETSF, Synop: Synop: 10858,
Koordinaten: 4812'00''N 01116'00''E, Hoehe: 519m, Entfernung: 46.92km
2007/10/09 05:44
ETSF 090544Z 19001KT 1500 R27/2300D BR FEW300 04/04 Q1024 BLACKAMB AMB BECMG YLO


Station: Neuburg / Donau, ICAO: ETSN, Synop: Synop: 10853,
Koordinaten: 4843'00''N 01113'00''E, Hoehe: 380m, Entfernung: 52.44km
2017/12/12 08:20
ETSN 120820Z 26006KT 9999 BKN034 03/M03 Q1006 BLU BLU


Station: OBERPFAFFENHOFEN, ICAO: EDMO, Synop: ,
Koordinaten: 48 04 N 011 16 E, Hoehe: 600m, Entfernung: 56.63km
2017/12/12 08:20
EDMO 120820Z 26016KT 9999 SCT030 02/M02 Q1006


mehr Wetter
WetterInfo - adds.pl 2.6.003 DL3EL © 2004-2017 [154884]